Gunnison Bend Reservoir




Date Hourly Average Reservoir Capacity (AF) Canal Flow (cfs) Battery Voltage (V) Reservoir Height (ft) Gate Height 1 (ft) Gate Height 2 (ft)
02/01/2017 2,086 0.00 13.36 8.71 0.02 0.02
02/02/2017 2,086 0.00 13.30 8.71 0.02 0.02
02/03/2017 2,086 0.00 13.14 8.71 0.02 0.02
02/04/2017 2,105 0.00 13.30 8.75 0.02 0.02
02/05/2017 2,125 0.00 13.29 8.79 0.02 0.02
02/06/2017 2,134 0.00 13.30 8.81 0.02 0.02
02/07/2017 2,154 0.00 13.15 8.85 0.02 0.02
02/08/2017 2,178 0.00 13.17 8.90 0.02 0.02
02/09/2017 2,207 0.00 13.29 8.96 0.02 0.02
02/10/2017 2,216 0.00 13.15 8.98 0.02 0.02
02/11/2017 2,216 0.00 12.93 8.98 0.02 0.02
02/12/2017 2,259 0.00 13.00 9.06 0.02 0.02
02/13/2017 2,270 0.00 13.38 9.08 0.02 0.02
02/14/2017 2,276 0.00 13.36 9.09 0.02 0.02
02/15/2017 2,281 0.00 13.37 9.10 0.02 0.02
02/16/2017 2,287 0.00 13.35 9.11 0.02 0.02
02/17/2017 2,281 0.00 13.33 9.10 0.02 0.02
02/18/2017 2,298 0.00 12.98 9.13 0.02 0.02
02/19/2017 2,309 0.00 13.05 9.15 0.02 0.02
02/20/2017 2,309 0.00 13.32 9.15 0.02 0.02
02/21/2017 2,292 0.00 13.32 9.12 0.02 0.02
02/22/2017 2,287 0.00 13.29 9.11 0.02 0.02
02/23/2017 2,325 0.00 13.10 9.18 0.02 0.02
02/24/2017 2,331 0.00 13.31 9.19 0.02 0.02
02/25/2017 2,347 0.00 13.36 9.22 0.02 0.02
02/26/2017 2,353 0.00 13.46 9.23 0.02 0.02
02/27/2017 2,353 0.00 13.44 9.23 0.02 0.02
02/28/2017 2,358 0.00 13.24 9.24 0.02 0.02
Average 0.00
Maximum 0.00
Minimum 0.00
Total Volume (AF) 0.00